Ciutat Vella, Spain
Current Conditions -  °F | °C
As of 1:00 AM on Saturday 22 Nov 2014 (Local Time) from LEBL Reporting Station
Scattered Clouds Scattered Clouds  
Wind Chill: 63°   Ceiling: Unl
Heat Index: 63°   Visibility: 6mi
Dew Point: 57°   Wind: 7mph
Humidity: 82%   Direction: 340°NNW
Pressure: 30.06"   Gusts: NA
Location:  41.38°N, 2.17°E
Report Text: LEBL 220000Z 34006KT 9999 SCT025 17/14 Q1018 NOSIG
Loading
Personal Weather Stations






























Interactive Weather Map New forecast layout! Learn more

10-Day Weather Forecast

Advertisements
Track Severe Weather on mobile